Time;durP1;ratioP1;P1;durP2;ratioP2;P2;SDS_P1;SDS_P2;PMS_P1;PMS_P2;Temp;Humidity;BMP_temperature;BMP_pressure;BME280_temperature;BME280_humidity;BME280_pressure;Samples;Min_cycle;Max_cycle;Signal;HPM_P1;HPM_P2
2021/05/31 00:00:29;;;;;;;16.85;11.15;;;;;;;9.68;85.82;101013.77;2798636;85;21137;-60
2021/05/31 00:04:33;;;;;;;15.50;12.70;;;;;;;9.63;85.67;101013.69;2798678;82;22271;-60
2021/05/31 00:08:34;;;;;;;17.32;12.65;;;;;;;9.60;86.34;101012.56;2798646;84;21065;-61
2021/05/31 00:12:37;;;;;;;11.75;9.80;;;;;;;9.68;85.49;101037.67;2798639;85;21049;-61
2021/05/31 00:16:39;;;;;;;14.75;10.82;;;;;;;9.74;86.63;101012.51;2798638;84;21093;-60
2021/05/31 00:20:41;;;;;;;17.10;10.75;;;;;;;9.90;86.54;101024.77;2798862;84;21061;-61
2021/05/31 00:24:43;;;;;;;11.88;10.55;;;;;;;10.00;86.09;101009.89;2798895;84;21137;-60
2021/05/31 00:28:46;;;;;;;11.83;9.43;;;;;;;10.06;86.25;101013.94;2805779;83;21116;-62
2021/05/31 00:32:49;;;;;;;13.95;10.53;;;;;;;10.15;85.90;101020.81;2856000;82;21088;-61
2021/05/31 00:36:52;;;;;;;20.00;11.43;;;;;;;10.23;86.03;101008.33;2847042;82;21037;-61
2021/05/31 00:40:54;;;;;;;14.78;10.95;;;;;;;10.24;86.13;100997.22;2839257;83;21677;-60
2021/05/31 00:44:56;;;;;;;11.40;8.93;;;;;;;10.31;86.05;100988.31;2839425;82;21053;-60
2021/05/31 00:48:57;;;;;;;11.48;9.05;;;;;;;10.37;85.38;100987.41;2839211;83;21061;-61
2021/05/31 00:52:59;;;;;;;11.75;10.40;;;;;;;10.38;84.66;100987.78;2839404;82;21061;-61
2021/05/31 00:57:03;;;;;;;12.28;9.38;;;;;;;10.40;84.63;100995.20;2839574;83;21116;-60
2021/05/31 01:01:06;;;;;;;10.85;9.68;;;;;;;10.48;84.36;100994.67;2839257;82;21049;-61
2021/05/31 01:05:10;;;;;;;12.75;10.03;;;;;;;10.53;83.36;100988.58;2839335;82;21112;-60
2021/05/31 01:09:27;;;;;;;11.95;9.20;;;;;;;10.55;82.79;100984.45;2839282;83;21025;-60
2021/05/31 01:13:40;;;;;;;25.82;10.98;;;;;;;10.58;82.57;100977.58;2838379;83;21674;-61
2021/05/31 01:18:18;;;;;;;12.03;9.38;;;;;;;10.56;81.79;100979.50;2839289;82;21089;-60
2021/05/31 01:22:26;;;;;;;13.13;10.10;;;;;;;10.48;81.31;100974.72;2839372;83;21607;-60
2021/05/31 01:26:46;;;;;;;9.40;8.48;;;;;;;10.39;81.41;100969.54;2839391;83;22299;-61
2021/05/31 01:30:49;;;;;;;11.38;7.95;;;;;;;10.33;81.57;100966.48;2838814;83;21069;-61
2021/05/31 01:34:53;;;;;;;11.38;9.25;;;;;;;10.23;82.03;100967.61;2839278;83;21061;-60
2021/05/31 01:38:56;;;;;;;11.28;8.33;;;;;;;10.22;82.34;100964.55;2839282;82;21097;-61
2021/05/31 01:43:04;;;;;;;12.75;9.68;;;;;;;10.23;82.16;100967.61;2839365;82;21049;-61
2021/05/31 01:47:06;;;;;;;11.63;10.28;;;;;;;10.21;82.46;100962.84;2839188;82;21088;-61
2021/05/31 01:51:08;;;;;;;11.10;9.90;;;;;;;10.19;82.49;100956.79;2839297;83;21056;-61
2021/05/31 01:55:13;;;;;;;9.48;8.50;;;;;;;10.13;82.44;100952.28;2839401;83;21029;-61
2021/05/31 01:59:19;;;;;;;9.58;7.97;;;;;;;10.12;82.30;100955.90;2839311;83;21049;-60
2021/05/31 02:03:22;;;;;;;;;;;;;;;10.10;82.05;100952.50;2841724;83;21069;-60
2021/05/31 02:07:23;;;;;;;11.95;9.75;;;;;;;10.12;81.71;100955.90;2839341;82;20198;-61
2021/05/31 02:11:56;;;;;;;10.72;9.65;;;;;;;10.11;81.52;100955.98;2839128;82;21025;-60
2021/05/31 02:16:37;;;;;;;11.30;8.48;;;;;;;10.00;81.81;100950.09;2839153;82;21065;-60
2021/05/31 02:20:42;;;;;;;9.30;8.13;;;;;;;9.90;82.05;100957.01;2839243;83;21393;-61
2021/05/31 02:24:44;;;;;;;10.35;9.23;;;;;;;9.76;82.44;100959.28;2839140;82;21086;-61
2021/05/31 02:28:48;;;;;;;10.93;8.90;;;;;;;9.67;83.00;100962.08;2839324;83;21084;-61
2021/05/31 02:32:55;;;;;;;12.58;9.43;;;;;;;9.48;83.57;100966.43;2839192;83;21080;-61
2021/05/31 02:36:57;;;;;;;11.68;9.10;;;;;;;9.40;83.17;100964.28;2842295;82;21078;-61
2021/05/31 02:40:59;;;;;;;12.33;9.45;;;;;;;9.26;82.69;100958.09;2846678;82;21108;-61
2021/05/31 02:45:00;;;;;;;14.10;11.20;;;;;;;9.17;82.91;100961.34;2846807;82;21112;-61
2021/05/31 02:49:03;;;;;;;37.58;11.40;;;;;;;9.21;82.61;100960.67;2847027;82;21089;-60
2021/05/31 02:53:07;;;;;;;17.30;10.05;;;;;;;9.26;82.47;100959.42;2846991;82;21033;-61
2021/05/31 02:57:08;;;;;;;11.90;10.60;;;;;;;9.35;82.07;100959.76;2846933;82;21045;-61
2021/05/31 03:01:10;;;;;;;15.15;10.20;;;;;;;9.38;82.27;100960.42;2809174;82;21064;-61
2021/05/31 03:05:16;;;;;;;14.83;10.90;;;;;;;9.36;82.91;100966.77;2811372;83;21128;-62
2021/05/31 03:09:17;;;;;;;12.70;10.88;;;;;;;9.39;83.17;100963.91;2847161;83;21089;-61
2021/05/31 03:13:20;;;;;;;12.28;9.90;;;;;;;9.33;83.72;100960.34;2846639;83;21037;-59
2021/05/31 03:17:22;;;;;;;12.30;8.65;;;;;;;9.37;84.68;100959.17;2846855;83;21117;-60
2021/05/31 03:21:24;;;;;;;15.38;10.78;;;;;;;9.51;84.49;100961.77;2846673;83;21084;-60
2021/05/31 03:25:26;;;;;;;16.07;11.30;;;;;;;9.64;83.92;100960.97;2846716;83;21120;-59
2021/05/31 03:29:28;;;;;;;13.15;8.75;;;;;;;9.57;83.15;100960.02;2846923;82;21087;-60
2021/05/31 03:33:29;;;;;;;15.35;10.63;;;;;;;9.58;83.35;100960.40;2846764;82;21401;-61
2021/05/31 03:37:31;;;;;;;13.45;11.70;;;;;;;9.66;82.96;100963.88;2846875;82;21143;-59
2021/05/31 03:41:34;;;;;;;15.30;10.78;;;;;;;9.69;83.67;100966.31;2846916;82;21096;-60
2021/05/31 03:45:36;;;;;;;14.15;9.28;;;;;;;9.82;83.33;100971.65;2846960;82;21120;-59
2021/05/31 03:49:37;;;;;;;13.48;12.07;;;;;;;9.79;83.02;100968.38;2847120;83;21072;-59
2021/05/31 03:53:41;;;;;;;12.75;9.65;;;;;;;9.90;83.97;100970.30;2846920;82;21077;-60
2021/05/31 03:57:42;;;;;;;17.77;10.48;;;;;;;10.07;83.90;100967.34;2847159;83;22300;-59
2021/05/31 04:01:47;;;;;;;11.95;9.90;;;;;;;10.05;83.14;100966.59;2847328;83;21065;-61
2021/05/31 04:14:31;;;;;;;12.55;10.18;;;;;;;10.45;85.32;100960.81;2847268;82;21073;-61
2021/05/31 04:18:34;;;;;;;19.60;12.13;;;;;;;11.18;87.28;100964.42;2847393;82;21574;-61
2021/05/31 04:22:36;;;;;;;13.75;11.63;;;;;;;12.35;86.22;100952.52;2847420;82;21053;-62
2021/05/31 04:26:39;;;;;;;11.93;9.78;;;;;;;13.16;80.49;100959.44;2847826;83;21117;-61
2021/05/31 04:30:41;;;;;;;14.07;10.98;;;;;;;13.71;79.15;100950.50;2847830;83;21029;-62
2021/05/31 04:34:43;;;;;;;14.95;12.47;;;;;;;14.32;75.86;100954.72;2847951;83;21001;-63
2021/05/31 04:38:45;;;;;;;15.80;12.00;;;;;;;14.71;73.80;100949.03;2842637;82;21088;-62
2021/05/31 04:42:46;;;;;;;11.33;10.13;;;;;;;14.88;72.09;100951.21;2840377;83;21057;-62
2021/05/31 04:46:48;;;;;;;14.58;12.95;;;;;;;14.89;72.11;100953.73;2840805;82;21065;-62
2021/05/31 04:50:56;;;;;;;14.85;11.93;;;;;;;15.11;71.27;100951.80;2840755;83;21102;-61
2021/05/31 04:54:57;;;;;;;14.07;12.25;;;;;;;15.16;71.10;100942.86;2840914;83;21076;-62
2021/05/31 04:58:59;;;;;;;16.12;10.98;;;;;;;15.77;71.99;100937.31;2841160;82;21057;-62
2021/05/31 05:03:01;;;;;;;16.90;11.45;;;;;;;15.97;68.45;100946.22;2841023;83;21669;-62
2021/05/31 05:07:04;;;;;;;11.80;9.15;;;;;;;15.97;70.71;100942.19;2841116;83;21069;-62
2021/05/31 05:11:05;;;;;;;11.45;10.13;;;;;;;16.16;68.32;100941.27;2841564;83;21045;-62
2021/05/31 05:15:09;;;;;;;12.78;10.88;;;;;;;16.51;68.57;100939.72;2841504;82;21064;-62
2021/05/31 05:19:12;;;;;;;11.43;10.18;;;;;;;16.78;67.83;100928.60;2841706;83;21077;-62
2021/05/31 05:23:14;;;;;;;10.85;9.73;;;;;;;16.93;66.27;100930.30;2841987;82;21060;-63
2021/05/31 05:27:18;;;;;;;12.80;10.75;;;;;;;17.07;66.04;100928.95;2842137;83;21156;-62
2021/05/31 05:31:21;;;;;;;12.68;9.68;;;;;;;17.31;65.67;100930.17;2842605;83;21033;-62
2021/05/31 05:35:26;;;;;;;11.97;9.70;;;;;;;17.71;64.77;100941.44;2842717;82;21080;-62
2021/05/31 05:43:45;;;;;;;11.43;8.78;;;;;;;18.54;60.71;100941.41;2850920;82;21652;-63
2021/05/31 05:47:46;;;;;;;12.75;9.68;;;;;;;18.92;59.96;100935.65;2850273;82;21056;-62
2021/05/31 05:51:48;;;;;;;9.55;7.87;;;;;;;19.04;59.69;100941.59;2851171;82;21065;-63
2021/05/31 05:55:51;;;;;;;10.38;8.93;;;;;;;19.57;58.60;100943.15;2851408;82;21045;-62
2021/05/31 05:59:52;;;;;;;12.00;9.18;;;;;;;19.79;59.21;100931.66;2851599;83;21065;-63
2021/05/31 06:03:55;;;;;;;11.70;9.55;;;;;;;19.84;57.61;100933.33;2851559;83;21045;-63
2021/05/31 06:07:58;;;;;;;7.58;6.45;;;;;;;19.66;57.02;100936.75;2851815;82;21080;-63
2021/05/31 06:11:59;;;;;;;9.60;7.58;;;;;;;19.61;56.42;100937.74;2851664;82;21025;-63
2021/05/31 06:16:03;;;;;;;10.95;7.22;;;;;;;19.70;57.59;100942.97;2851861;82;21511;-63
2021/05/31 06:20:08;;;;;;;11.63;7.05;;;;;;;20.10;55.40;100932.31;2852155;83;21104;-63
2021/05/31 06:24:12;;;;;;;8.50;6.97;;;;;;;20.09;55.21;100940.08;2851882;82;21073;-62
2021/05/31 06:28:15;;;;;;;7.28;6.55;;;;;;;20.40;55.01;100929.83;2852382;82;21037;-63
2021/05/31 06:32:17;;;;;;;9.68;6.80;;;;;;;20.67;53.73;100926.34;2852414;83;20985;-63
2021/05/31 06:36:20;;;;;;;10.38;6.45;;;;;;;20.92;53.49;100934.34;2852265;83;21049;-63
2021/05/31 06:40:25;;;;;;;9.23;6.20;;;;;;;21.20;52.57;100930.27;2852582;82;21081;-63
2021/05/31 06:44:27;;;;;;;9.25;7.33;;;;;;;21.11;52.48;100938.95;2852723;82;21041;-63
2021/05/31 06:48:29;;;;;;;8.13;6.85;;;;;;;20.91;52.62;100939.91;2852568;83;21060;-63
2021/05/31 06:52:32;;;;;;;9.53;7.80;;;;;;;20.81;53.07;100934.73;2852716;83;21324;-63
2021/05/31 06:56:36;;;;;;;8.23;7.35;;;;;;;20.85;53.78;100932.03;2852509;82;21057;-63
2021/05/31 07:00:38;;;;;;;11.68;7.80;;;;;;;21.02;52.91;100926.49;2852508;82;21002;-63
2021/05/31 07:04:40;;;;;;;6.28;5.67;;;;;;;21.21;53.34;100935.48;2852724;83;21026;-63
2021/05/31 07:08:49;;;;;;;11.12;6.47;;;;;;;21.37;51.94;100928.27;2852745;82;21025;-63
2021/05/31 07:12:52;;;;;;;10.00;5.35;;;;;;;21.25;52.16;100929.21;2852401;83;21045;-63
2021/05/31 07:16:56;;;;;;;7.05;5.40;;;;;;;21.34;51.35;100932.70;2852435;83;21021;-63
2021/05/31 07:20:57;;;;;;;5.78;4.20;;;;;;;21.52;51.68;100931.86;2852898;82;21068;-63
2021/05/31 07:25:00;;;;;;;7.55;5.90;;;;;;;21.64;50.15;100930.91;2852642;83;21045;-63
2021/05/31 07:29:04;;;;;;;6.53;3.12;;;;;;;21.81;50.46;100929.44;2852912;83;21108;-63
2021/05/31 07:33:10;;;;;;;9.78;4.40;;;;;;;21.89;48.30;100935.28;2853082;83;21021;-63
2021/05/31 07:37:10;;;;;;;4.87;3.45;;;;;;;21.89;48.47;100927.16;2852121;82;21113;-63
2021/05/31 07:41:11;;;;;;;5.62;3.92;;;;;;;21.87;47.92;100937.34;2853001;82;21049;-63
2021/05/31 07:45:21;;;;;;;5.55;3.62;;;;;;;21.80;47.98;100932.64;2853033;82;21087;-63
2021/05/31 07:49:21;;;;;;;4.87;3.33;;;;;;;21.88;47.83;100933.61;2852365;82;21431;-63
2021/05/31 07:53:23;;;;;;;6.00;3.33;;;;;;;21.85;47.80;100926.68;2853051;83;21017;-63
2021/05/31 07:57:27;;;;;;;10.50;3.37;;;;;;;21.75;48.13;100934.25;2852877;82;21068;-63
2021/05/31 08:01:29;;;;;;;5.78;2.45;;;;;;;21.93;47.34;100921.70;2853116;82;21041;-63
2021/05/31 08:05:30;;;;;;;7.15;3.70;;;;;;;22.02;47.11;100916.53;2853044;83;21561;-63
2021/05/31 08:09:32;;;;;;;3.33;2.37;;;;;;;22.03;46.60;100914.65;2853349;82;21041;-63
2021/05/31 08:13:34;;;;;;;6.05;3.45;;;;;;;22.06;48.08;100919.19;2853201;82;21056;-63
2021/05/31 08:17:36;;;;;;;3.45;2.85;;;;;;;21.91;46.21;100916.48;2853019;82;21097;-63
2021/05/31 08:21:38;;;;;;;2.95;2.50;;;;;;;21.73;47.83;100918.70;2852686;82;21041;-63
2021/05/31 08:25:46;;;;;;;2.47;2.25;;;;;;;21.55;47.29;100918.49;2852747;82;21132;-63
2021/05/31 08:29:48;;;;;;;3.33;2.33;;;;;;;21.37;48.06;100913.39;2852793;82;21017;-63
2021/05/31 08:33:50;;;;;;;5.15;2.35;;;;;;;21.14;48.13;100916.13;2852397;83;21005;-63
2021/05/31 08:37:53;;;;;;;4.87;2.50;;;;;;;21.03;47.80;100911.45;2851230;82;21088;-63
2021/05/31 08:41:55;;;;;;;3.62;1.82;;;;;;;20.96;48.50;100919.44;2844639;83;21081;-62
2021/05/31 08:45:59;;;;;;;5.83;2.40;;;;;;;20.87;48.37;100920.52;2844611;82;21065;-63
2021/05/31 08:50:01;;;;;;;3.60;2.30;;;;;;;20.78;49.23;100917.48;2844500;82;21057;-63
2021/05/31 08:54:03;;;;;;;5.67;2.47;;;;;;;20.66;48.57;100919.75;2844740;82;21001;-63
2021/05/31 08:58:07;;;;;;;5.83;2.35;;;;;;;20.60;49.55;100910.48;2844377;82;21033;-62
2021/05/31 09:02:10;;;;;;;3.52;2.47;;;;;;;20.59;51.03;100905.28;2844592;83;21001;-62
2021/05/31 09:06:15;;;;;;;3.00;2.67;;;;;;;20.60;49.55;100904.25;2844276;83;21080;-63
2021/05/31 09:10:17;;;;;;;3.77;2.77;;;;;;;20.55;51.51;100897.53;2844443;82;21013;-62
2021/05/31 09:14:23;;;;;;;4.37;2.67;;;;;;;20.47;50.30;100894.84;2844452;82;21045;-62
2021/05/31 09:18:26;;;;;;;3.92;2.30;;;;;;;20.39;50.48;100898.95;2844510;82;21070;-62
2021/05/31 09:22:28;;;;;;;3.45;2.15;;;;;;;20.33;49.86;100889.69;2844518;83;21096;-63
2021/05/31 09:26:34;;;;;;;4.08;2.72;;;;;;;20.27;48.61;100886.34;2844299;82;21101;-63
2021/05/31 09:30:39;;;;;;;3.80;2.75;;;;;;;20.29;50.05;100884.80;2843708;83;21306;-63
2021/05/31 09:34:41;;;;;;;3.58;2.08;;;;;;;20.30;51.36;100884.64;2844403;82;21060;-62
2021/05/31 09:38:52;;;;;;;6.33;2.67;;;;;;;20.29;51.09;100880.25;2846737;82;21081;-63
2021/05/31 09:42:57;;;;;;;4.28;2.27;;;;;;;20.32;50.48;100878.55;2851712;82;21089;-63
2021/05/31 09:46:59;;;;;;;3.27;1.90;;;;;;;20.35;51.30;100874.14;2852127;83;21037;-63
2021/05/31 09:51:01;;;;;;;3.22;1.92;;;;;;;20.26;49.05;100873.86;2851973;82;21001;-62
2021/05/31 09:55:09;;;;;;;5.67;2.02;;;;;;;20.12;49.14;100872.22;2851769;82;21632;-63
2021/05/31 09:59:22;;;;;;;3.02;2.08;;;;;;;20.10;47.98;100863.45;2851780;82;21049;-62
2021/05/31 10:03:35;;;;;;;2.58;1.75;;;;;;;20.05;49.41;100863.63;2851866;82;21077;-62
2021/05/31 10:11:33;;;;;;;5.67;1.67;;;;;;;20.02;49.22;100863.45;2851955;83;21033;-62
2021/05/31 10:15:42;;;;;;;1.80;1.32;;;;;;;20.05;49.35;100865.84;2851736;82;21325;-63
2021/05/31 10:19:45;;;;;;;1.60;1.27;;;;;;;20.11;45.99;100864.27;2852106;83;21041;-63
2021/05/31 10:23:47;;;;;;;3.72;1.67;;;;;;;20.01;44.48;100859.08;2852030;83;21029;-63
2021/05/31 10:28:03;;;;;;;2.75;1.57;;;;;;;19.99;43.93;100846.27;2852160;82;21048;-63
2021/05/31 10:32:09;;;;;;;1.40;1.10;;;;;;;20.08;45.04;100854.68;2850532;83;21025;-63
2021/05/31 10:36:18;;;;;;;;;;;;;;;20.11;44.38;100846.23;2854860;82;20974;-63
2021/05/31 10:40:21;;;;;;;2.30;1.37;;;;;;;20.24;42.88;100832.64;2847445;82;20158;-63
2021/05/31 10:44:24;;;;;;;1.70;0.93;;;;;;;20.30;42.59;100835.16;2844612;82;21045;-63
2021/05/31 10:48:31;;;;;;;2.47;0.90;;;;;;;20.32;40.89;100835.33;2834201;83;21117;-63
2021/05/31 10:52:33;;;;;;;1.80;1.20;;;;;;;20.40;40.94;100835.27;2844350;82;21657;-63
2021/05/31 10:56:37;;;;;;;2.33;0.80;;;;;;;20.44;40.89;100836.26;2844396;83;21073;-63
2021/05/31 11:00:39;;;;;;;3.30;1.17;;;;;;;20.48;41.59;100830.86;2844224;83;21048;-63
2021/05/31 11:04:41;;;;;;;2.75;1.00;;;;;;;20.55;40.03;100832.67;2844648;83;21033;-63
2021/05/31 11:09:21;;;;;;;2.10;1.30;;;;;;;20.66;41.51;100839.52;2844519;82;21085;-63
2021/05/31 11:13:23;;;;;;;2.40;1.62;;;;;;;20.80;41.87;100827.13;2844406;82;21057;-63
2021/05/31 11:17:30;;;;;;;2.40;1.62;;;;;;;20.86;40.79;100830.12;2844922;83;21564;-63
2021/05/31 11:21:44;;;;;;;2.75;1.30;;;;;;;20.94;39.95;100824.13;2844586;82;21093;-63
2021/05/31 11:25:48;;;;;;;1.70;1.60;;;;;;;21.01;39.37;100828.81;2844779;82;21089;-63
2021/05/31 11:29:52;;;;;;;3.17;1.07;;;;;;;21.16;39.41;100817.53;2833215;83;21056;-63
2021/05/31 11:33:56;;;;;;;2.15;1.50;;;;;;;21.29;39.22;100812.02;2797573;84;21049;-63
2021/05/31 11:37:59;;;;;;;1.80;1.30;;;;;;;21.34;40.43;100808.23;2797740;84;21029;-63
2021/05/31 11:42:01;;;;;;;4.00;1.85;;;;;;;21.46;40.99;100807.27;2850063;82;21077;-63
2021/05/31 11:46:18;;;;;;;1.75;1.65;;;;;;;21.54;40.80;100806.66;2853052;83;21021;-63
2021/05/31 11:50:22;;;;;;;3.35;1.72;;;;;;;21.64;40.80;100806.92;2853183;83;21125;-63
2021/05/31 11:54:25;;;;;;;2.22;1.57;;;;;;;21.65;40.23;100795.92;2852624;83;21057;-63
2021/05/31 11:58:38;;;;;;;3.62;1.57;;;;;;;21.67;40.09;100786.27;2852975;83;21084;-63
2021/05/31 12:02:40;;;;;;;3.05;1.80;;;;;;;21.71;40.42;100778.59;2839913;83;21084;-64
2021/05/31 12:06:44;;;;;;;2.55;1.60;;;;;;;21.72;41.30;100785.72;2853251;82;21049;-63
2021/05/31 12:10:47;;;;;;;2.80;2.00;;;;;;;21.80;41.91;100774.78;2852949;83;21029;-63
2021/05/31 12:14:54;;;;;;;6.67;3.15;;;;;;;21.94;42.57;100768.51;2852638;83;21120;-62
2021/05/31 12:18:56;;;;;;;2.87;1.75;;;;;;;22.06;43.03;100776.98;2853303;83;21016;-63
2021/05/31 12:22:58;;;;;;;3.33;1.32;;;;;;;22.22;41.74;100761.53;2853107;83;21025;-63
2021/05/31 12:27:01;;;;;;;2.30;1.70;;;;;;;22.51;42.96;100752.99;2840865;83;21057;-63
2021/05/31 12:31:03;;;;;;;2.20;1.77;;;;;;;22.62;42.23;100740.28;2853345;83;21069;-63
2021/05/31 12:35:08;;;;;;;2.02;1.85;;;;;;;22.36;43.46;100757.92;2853371;83;21057;-63
2021/05/31 12:39:10;;;;;;;3.05;2.02;;;;;;;22.17;44.18;100766.16;2853035;82;21061;-63
2021/05/31 12:43:13;;;;;;;5.97;1.52;;;;;;;22.17;45.15;100761.25;2845467;83;21063;-63
2021/05/31 12:47:19;;;;;;;3.12;2.12;;;;;;;22.37;43.06;100747.40;2845724;82;21080;-63
2021/05/31 12:51:21;;;;;;;1.60;1.42;;;;;;;22.41;43.87;100749.22;2845565;82;21041;-63
2021/05/31 12:55:26;;;;;;;5.03;1.85;;;;;;;22.25;43.08;100743.00;2845665;83;21022;-63
2021/05/31 12:59:39;;;;;;;2.33;1.53;;;;;;;21.95;44.52;100749.02;2827818;82;21069;-63
2021/05/31 13:03:41;;;;;;;3.22;2.45;;;;;;;21.67;45.41;100749.73;2846749;83;21550;-64
2021/05/31 13:07:49;;;;;;;2.27;1.72;;;;;;;21.73;45.92;100738.67;2846751;83;21665;-64
2021/05/31 13:11:54;;;;;;;1.80;1.70;;;;;;;21.97;45.51;100734.27;2846076;83;21045;-62
2021/05/31 13:15:58;;;;;;;1.60;1.50;;;;;;;22.23;45.25;100730.70;2844649;83;21077;-64
2021/05/31 13:20:13;;;;;;;3.80;2.22;;;;;;;22.50;43.86;100726.92;2844393;82;21057;-66
2021/05/31 13:24:24;;;;;;;2.42;1.50;;;;;;;22.28;44.54;100733.66;2844894;82;21085;-63
2021/05/31 13:28:41;;;;;;;5.72;2.62;;;;;;;21.83;45.50;100734.63;2845078;82;21037;-63
2021/05/31 13:32:58;;;;;;;4.53;2.75;;;;;;;21.48;46.23;100722.17;2844457;83;21049;-62
2021/05/31 13:37:11;;;;;;;4.87;2.45;;;;;;;21.47;46.05;100724.55;2843314;83;21089;-60
2021/05/31 13:41:13;;;;;;;5.58;2.20;;;;;;;21.72;44.68;100716.16;2843882;82;21057;-60
2021/05/31 13:45:16;;;;;;;2.80;2.05;;;;;;;21.75;44.59;100722.54;2843906;83;21061;-60
2021/05/31 13:49:19;;;;;;;5.62;3.02;;;;;;;21.58;46.96;100721.03;2843990;83;21092;-61
2021/05/31 13:53:21;;;;;;;2.22;1.80;;;;;;;21.29;47.15;100716.80;2844160;83;21072;-61
2021/05/31 13:57:23;;;;;;;2.30;1.60;;;;;;;21.45;45.72;100703.61;2844079;82;21037;-61
2021/05/31 14:01:24;;;;;;;1.85;1.60;;;;;;;21.80;45.01;100702.50;2843864;83;21113;-60
2021/05/31 14:05:33;;;;;;;6.58;2.60;;;;;;;22.24;44.01;100707.46;2844130;82;21025;-61
2021/05/31 14:09:39;;;;;;;3.50;2.52;;;;;;;22.24;43.72;100712.06;2844156;83;21049;-60
2021/05/31 14:13:41;;;;;;;4.15;2.30;;;;;;;21.80;44.71;100718.73;2843894;83;21096;-60
2021/05/31 14:17:45;;;;;;;2.37;2.05;;;;;;;21.25;45.16;100706.88;2843655;83;21080;-61
2021/05/31 14:21:48;;;;;;;5.85;2.33;;;;;;;20.91;45.95;100712.30;2843316;82;21100;-60
2021/05/31 14:25:52;;;;;;;2.25;1.90;;;;;;;21.04;46.77;100708.13;2842627;82;21148;-60
2021/05/31 14:29:54;;;;;;;2.40;1.90;;;;;;;21.42;45.89;100701.78;2843730;82;21120;-60
2021/05/31 14:33:56;;;;;;;3.08;1.98;;;;;;;21.56;43.56;100702.30;2843877;82;21072;-60
2021/05/31 14:37:59;;;;;;;6.20;1.60;;;;;;;21.58;44.48;100707.50;2844069;82;21057;-61
2021/05/31 14:42:03;;;;;;;3.02;1.80;;;;;;;21.47;45.34;100703.41;2843681;82;21092;-60
2021/05/31 14:46:06;;;;;;;5.40;1.90;;;;;;;21.32;45.40;100698.01;2843619;82;21076;-60
2021/05/31 14:50:10;;;;;;;2.37;1.70;;;;;;;21.25;46.65;100689.30;2843803;82;21033;-61
2021/05/31 14:54:12;;;;;;;1.62;1.35;;;;;;;21.22;47.80;100691.53;2844140;82;21037;-61
2021/05/31 14:58:15;;;;;;;2.45;1.55;;;;;;;21.14;46.24;100684.34;2843747;83;21076;-60
2021/05/31 15:02:17;;;;;;;3.65;1.82;;;;;;;21.14;46.25;100685.69;2843768;82;21139;-60
2021/05/31 15:06:21;;;;;;;4.03;1.85;;;;;;;21.39;45.11;100676.78;2843690;83;21025;-60
2021/05/31 15:10:23;;;;;;;2.60;2.40;;;;;;;21.60;43.70;100678.38;2843992;82;21037;-61
2021/05/31 15:14:25;;;;;;;5.72;1.98;;;;;;;21.57;44.80;100680.11;2843696;83;20993;-61
2021/05/31 15:18:28;;;;;;;3.20;2.67;;;;;;;21.31;45.89;100681.45;2843737;82;21013;-60
2021/05/31 15:22:30;;;;;;;5.05;3.10;;;;;;;21.04;48.07;100679.20;2843756;83;21033;-60
2021/05/31 15:26:32;;;;;;;2.70;2.35;;;;;;;20.86;47.11;100676.87;2843169;82;21104;-61
2021/05/31 15:30:34;;;;;;;3.58;1.90;;;;;;;20.88;47.65;100669.91;2843882;83;21063;-61
2021/05/31 15:34:36;;;;;;;3.00;2.35;;;;;;;21.25;47.27;100662.25;2843763;83;21037;-61
2021/05/31 15:38:39;;;;;;;3.40;2.37;;;;;;;21.65;45.24;100666.52;2844017;82;21045;-61
2021/05/31 15:42:41;;;;;;;2.60;2.40;;;;;;;21.58;44.98;100662.84;2843568;82;21072;-60
2021/05/31 15:46:43;;;;;;;2.87;2.58;;;;;;;21.29;46.87;100664.57;2843437;82;21085;-60
2021/05/31 15:50:45;;;;;;;3.27;2.00;;;;;;;20.93;47.55;100662.07;2843755;83;21049;-61
2021/05/31 15:54:48;;;;;;;8.80;2.62;;;;;;;20.58;48.34;100665.25;2843584;82;21081;-61
2021/05/31 15:58:51;;;;;;;2.50;2.17;;;;;;;20.33;48.75;100665.97;2843700;83;21005;-60
2021/05/31 16:02:53;;;;;;;4.00;2.50;;;;;;;20.14;49.15;100667.30;2843561;83;21005;-60
2021/05/31 16:06:55;;;;;;;4.53;2.72;;;;;;;20.02;48.85;100673.11;2843676;83;21033;-60
2021/05/31 16:10:59;;;;;;;8.30;3.60;;;;;;;19.93;49.79;100662.05;2843641;83;21116;-61
2021/05/31 16:15:01;;;;;;;8.65;1.90;;;;;;;20.01;49.81;100663.33;2843426;81;21041;-60
2021/05/31 16:19:08;;;;;;;3.87;2.17;;;;;;;20.10;49.61;100664.97;2843343;82;21029;-60
2021/05/31 16:27:15;;;;;;;2.37;1.80;;;;;;;20.02;48.90;100666.36;2810325;83;21073;-61
2021/05/31 16:31:16;;;;;;;4.28;3.00;;;;;;;20.13;49.10;100665.09;2788418;85;21116;-59
2021/05/31 16:35:19;;;;;;;4.83;3.02;;;;;;;20.32;48.75;100657.53;2796673;85;21065;-60
2021/05/31 16:39:24;;;;;;;4.60;3.45;;;;;;;20.36;48.85;100654.30;2796776;84;21076;-60
2021/05/31 16:43:26;;;;;;;4.10;2.83;;;;;;;20.28;48.22;100655.73;2839674;82;21049;-60
2021/05/31 16:47:30;;;;;;;4.35;2.62;;;;;;;20.11;48.77;100661.25;2844480;83;21049;-60
2021/05/31 16:51:32;;;;;;;5.20;2.25;;;;;;;19.97;48.96;100657.96;2844273;83;21056;-60
2021/05/31 16:55:34;;;;;;;10.15;2.10;;;;;;;19.89;49.42;100656.64;2844356;83;21076;-60
2021/05/31 16:59:41;;;;;;;2.80;2.05;;;;;;;19.83;49.51;100654.14;2844581;83;21064;-60
2021/05/31 17:03:43;;;;;;;3.42;2.62;;;;;;;19.80;50.00;100649.11;2844420;83;21060;-60
2021/05/31 17:07:50;;;;;;;2.60;2.37;;;;;;;19.81;49.58;100647.56;2844240;83;21108;-60
2021/05/31 17:20:36;;;;;;;3.83;2.47;;;;;;;20.02;48.72;100645.28;2844022;83;21334;-60
2021/05/31 17:24:37;;;;;;;5.37;3.00;;;;;;;20.06;48.57;100645.25;2844436;83;21092;-60
2021/05/31 17:28:43;;;;;;;4.37;2.87;;;;;;;20.05;49.31;100639.02;2844030;83;21104;-59
2021/05/31 17:32:43;;;;;;;4.05;1.85;;;;;;;20.05;50.32;100643.08;2844210;83;21100;-59
2021/05/31 17:36:46;;;;;;;3.30;3.00;;;;;;;20.03;50.78;100646.44;2844323;83;21128;-59
2021/05/31 17:40:48;;;;;;;2.87;2.00;;;;;;;20.00;50.81;100641.92;2844382;82;21061;-59
2021/05/31 17:44:50;;;;;;;27.27;10.18;;;;;;;20.00;51.71;100652.20;2844314;83;21061;-59
2021/05/31 17:48:57;;;;;;;25.30;10.20;;;;;;;19.96;51.70;100648.19;2844217;83;21057;-60
2021/05/31 17:53:01;;;;;;;4.78;2.70;;;;;;;19.92;51.66;100649.05;2823330;83;23782;-60
2021/05/31 17:57:05;;;;;;;4.62;2.60;;;;;;;19.90;50.97;100647.00;2844336;83;21073;-59
2021/05/31 18:01:07;;;;;;;3.92;2.85;;;;;;;19.80;50.39;100644.53;2844077;83;21085;-60
2021/05/31 18:05:10;;;;;;;16.75;11.00;;;;;;;19.70;51.53;100638.02;2844239;83;21064;-60
2021/05/31 18:09:16;;;;;;;8.80;5.00;;;;;;;19.65;52.32;100632.80;2844135;83;21033;-60
2021/05/31 18:13:18;;;;;;;;;;;;;;;19.61;54.04;100633.69;2846318;83;21052;-62
2021/05/31 18:17:23;;;;;;;6.20;4.15;;;;;;;19.52;53.84;100639.64;2895264;82;20163;-62
2021/05/31 18:21:26;;;;;;;5.92;3.55;;;;;;;19.46;54.46;100639.00;2894998;82;21011;-62
2021/05/31 18:25:28;;;;;;;6.12;3.87;;;;;;;19.34;54.51;100644.44;2895250;82;21074;-62
2021/05/31 18:29:30;;;;;;;21.97;9.70;;;;;;;19.21;54.33;100643.13;2895224;82;21110;-62
2021/05/31 18:33:35;;;;;;;13.72;6.97;;;;;;;19.08;54.77;100639.64;2843320;83;21057;-61
2021/05/31 18:37:37;;;;;;;17.12;9.30;;;;;;;18.97;54.60;100635.42;2895032;82;21045;-62
2021/05/31 18:41:42;;;;;;;9.73;4.60;;;;;;;18.84;55.12;100625.68;2893476;82;21118;-62
2021/05/31 18:45:44;;;;;;;9.37;5.90;;;;;;;18.76;55.05;100632.45;2888702;81;21043;-64
2021/05/31 18:49:48;;;;;;;14.53;6.10;;;;;;;18.68;55.31;100634.16;2889312;82;21050;-62
2021/05/31 18:53:50;;;;;;;11.15;5.22;;;;;;;18.54;56.02;100637.53;2890068;82;20979;-64
2021/05/31 18:57:54;;;;;;;9.00;4.50;;;;;;;18.37;54.93;100637.53;2889736;82;21043;-62
2021/05/31 19:01:57;;;;;;;20.20;8.15;;;;;;;18.24;55.05;100639.88;2889653;82;21086;-62
2021/05/31 19:05:59;;;;;;;19.92;7.50;;;;;;;18.05;57.73;100647.78;2889472;82;21659;-62
2021/05/31 19:10:05;;;;;;;8.85;4.55;;;;;;;17.69;58.40;100651.03;2888939;82;21031;-62
2021/05/31 19:14:07;;;;;;;;;;;;;;;17.47;59.06;100660.53;2850530;81;20988;-62
2021/05/31 19:18:11;;;;;;;33.45;17.80;;;;;;;17.21;60.00;100653.38;2839957;83;20146;-62